sensor_id;sensor_type;location;lat;lon;timestamp;P1;durP1;ratioP1;P2;durP2;ratioP2
7879;SDS011;3985;49.366;2.738;2024-03-08T00:01:45;45.00;;;41.25;;
7879;SDS011;3985;49.366;2.738;2024-03-08T00:04:12;55.50;;;43.50;;
7879;SDS011;3985;49.366;2.738;2024-03-08T00:06:41;39.50;;;36.50;;
7879;SDS011;3985;49.366;2.738;2024-03-08T00:09:11;54.50;;;43.25;;
7879;SDS011;3985;49.366;2.738;2024-03-08T00:11:38;48.75;;;40.75;;
7879;SDS011;3985;49.366;2.738;2024-03-08T00:14:06;44.00;;;38.00;;
7879;SDS011;3985;49.366;2.738;2024-03-08T00:16:35;45.75;;;37.25;;
7879;SDS011;3985;49.366;2.738;2024-03-08T00:19:03;41.25;;;35.75;;
7879;SDS011;3985;49.366;2.738;2024-03-08T00:21:30;36.00;;;34.00;;
7879;SDS011;3985;49.366;2.738;2024-03-08T00:23:59;32.75;;;30.00;;
7879;SDS011;3985;49.366;2.738;2024-03-08T00:26:26;41.00;;;35.50;;
7879;SDS011;3985;49.366;2.738;2024-03-08T00:28:56;47.00;;;39.75;;
7879;SDS011;3985;49.366;2.738;2024-03-08T00:31:23;45.50;;;40.25;;
7879;SDS011;3985;49.366;2.738;2024-03-08T00:33:51;42.75;;;37.00;;
7879;SDS011;3985;49.366;2.738;2024-03-08T00:36:18;51.50;;;42.25;;
7879;SDS011;3985;49.366;2.738;2024-03-08T00:38:47;43.75;;;39.00;;
7879;SDS011;3985;49.366;2.738;2024-03-08T00:41:16;40.25;;;37.00;;
7879;SDS011;3985;49.366;2.738;2024-03-08T00:43:43;53.50;;;41.00;;
7879;SDS011;3985;49.366;2.738;2024-03-08T00:46:12;41.75;;;37.00;;
7879;SDS011;3985;49.366;2.738;2024-03-08T00:48:41;39.00;;;36.75;;
7879;SDS011;3985;49.366;2.738;2024-03-08T00:51:08;44.50;;;39.75;;
7879;SDS011;3985;49.366;2.738;2024-03-08T00:53:35;48.00;;;42.75;;
7879;SDS011;3985;49.366;2.738;2024-03-08T00:56:03;43.75;;;39.25;;
7879;SDS011;3985;49.366;2.738;2024-03-08T00:58:32;51.75;;;39.75;;
7879;SDS011;3985;49.366;2.738;2024-03-08T01:00:59;42.50;;;36.50;;
7879;SDS011;3985;49.366;2.738;2024-03-08T01:03:26;49.50;;;41.00;;
7879;SDS011;3985;49.366;2.738;2024-03-08T01:05:56;47.50;;;40.50;;
7879;SDS011;3985;49.366;2.738;2024-03-08T01:08:25;45.25;;;40.25;;
7879;SDS011;3985;49.366;2.738;2024-03-08T01:10:53;50.50;;;43.00;;
7879;SDS011;3985;49.366;2.738;2024-03-08T01:13:21;36.50;;;36.50;;
7879;SDS011;3985;49.366;2.738;2024-03-08T01:15:49;45.75;;;41.00;;
7879;SDS011;3985;49.366;2.738;2024-03-08T01:18:19;54.75;;;45.00;;
7879;SDS011;3985;49.366;2.738;2024-03-08T01:20:47;52.00;;;41.00;;
7879;SDS011;3985;49.366;2.738;2024-03-08T01:23:14;50.50;;;41.25;;
7879;SDS011;3985;49.366;2.738;2024-03-08T01:25:45;53.75;;;39.75;;
7879;SDS011;3985;49.366;2.738;2024-03-08T01:28:17;57.25;;;44.00;;
7879;SDS011;3985;49.366;2.738;2024-03-08T01:30:45;56.75;;;44.00;;
7879;SDS011;3985;49.366;2.738;2024-03-08T01:33:18;48.50;;;42.00;;
7879;SDS011;3985;49.366;2.738;2024-03-08T01:35:47;51.75;;;40.25;;
7879;SDS011;3985;49.366;2.738;2024-03-08T01:38:15;50.75;;;43.25;;
7879;SDS011;3985;49.366;2.738;2024-03-08T01:40:42;46.00;;;39.75;;
7879;SDS011;3985;49.366;2.738;2024-03-08T01:43:18;45.25;;;39.00;;
7879;SDS011;3985;49.366;2.738;2024-03-08T01:45:48;55.25;;;42.75;;
7879;SDS011;3985;49.366;2.738;2024-03-08T01:48:17;53.00;;;45.50;;
7879;SDS011;3985;49.366;2.738;2024-03-08T01:50:49;50.50;;;41.25;;
7879;SDS011;3985;49.366;2.738;2024-03-08T01:53:17;47.25;;;41.75;;
7879;SDS011;3985;49.366;2.738;2024-03-08T01:55:45;44.50;;;39.00;;
7879;SDS011;3985;49.366;2.738;2024-03-08T01:58:14;49.75;;;43.50;;
7879;SDS011;3985;49.366;2.738;2024-03-08T02:00:42;49.50;;;39.50;;
7879;SDS011;3985;49.366;2.738;2024-03-08T02:03:11;47.50;;;40.50;;
7879;SDS011;3985;49.366;2.738;2024-03-08T02:05:39;46.00;;;40.75;;
7879;SDS011;3985;49.366;2.738;2024-03-08T02:08:08;49.50;;;42.50;;
7879;SDS011;3985;49.366;2.738;2024-03-08T02:10:38;52.50;;;41.75;;
7879;SDS011;3985;49.366;2.738;2024-03-08T02:13:07;52.50;;;45.00;;
7879;SDS011;3985;49.366;2.738;2024-03-08T02:15:55;58.75;;;47.75;;
7879;SDS011;3985;49.366;2.738;2024-03-08T02:18:25;41.75;;;38.75;;
7879;SDS011;3985;49.366;2.738;2024-03-08T02:20:54;57.75;;;47.75;;
7879;SDS011;3985;49.366;2.738;2024-03-08T02:23:22;55.25;;;44.50;;
7879;SDS011;3985;49.366;2.738;2024-03-08T02:25:50;52.00;;;43.75;;
7879;SDS011;3985;49.366;2.738;2024-03-08T02:28:18;56.00;;;43.25;;
7879;SDS011;3985;49.366;2.738;2024-03-08T02:30:46;47.25;;;41.25;;
7879;SDS011;3985;49.366;2.738;2024-03-08T02:33:20;57.00;;;47.75;;
7879;SDS011;3985;49.366;2.738;2024-03-08T02:35:49;52.25;;;42.00;;
7879;SDS011;3985;49.366;2.738;2024-03-08T02:38:18;58.00;;;46.00;;
7879;SDS011;3985;49.366;2.738;2024-03-08T02:40:47;47.75;;;40.25;;
7879;SDS011;3985;49.366;2.738;2024-03-08T02:43:15;47.50;;;41.75;;
7879;SDS011;3985;49.366;2.738;2024-03-08T02:45:44;41.25;;;37.50;;
7879;SDS011;3985;49.366;2.738;2024-03-08T02:48:11;38.75;;;36.75;;
7879;SDS011;3985;49.366;2.738;2024-03-08T02:50:38;62.00;;;42.00;;
7879;SDS011;3985;49.366;2.738;2024-03-08T02:53:07;51.50;;;45.00;;
7879;SDS011;3985;49.366;2.738;2024-03-08T02:55:36;55.75;;;44.50;;
7879;SDS011;3985;49.366;2.738;2024-03-08T02:58:05;48.25;;;40.00;;
7879;SDS011;3985;49.366;2.738;2024-03-08T03:00:35;55.50;;;44.50;;
7879;SDS011;3985;49.366;2.738;2024-03-08T03:03:06;51.00;;;41.75;;
7879;SDS011;3985;49.366;2.738;2024-03-08T03:05:35;49.25;;;42.50;;
7879;SDS011;3985;49.366;2.738;2024-03-08T03:08:09;56.50;;;44.75;;
7879;SDS011;3985;49.366;2.738;2024-03-08T03:10:38;56.25;;;46.25;;
7879;SDS011;3985;49.366;2.738;2024-03-08T03:13:06;52.25;;;44.50;;
7879;SDS011;3985;49.366;2.738;2024-03-08T03:15:33;57.75;;;48.25;;
7879;SDS011;3985;49.366;2.738;2024-03-08T03:18:01;60.00;;;48.50;;
7879;SDS011;3985;49.366;2.738;2024-03-08T03:20:29;60.00;;;48.00;;
7879;SDS011;3985;49.366;2.738;2024-03-08T03:23:02;58.00;;;47.50;;
7879;SDS011;3985;49.366;2.738;2024-03-08T03:25:29;58.00;;;45.75;;
7879;SDS011;3985;49.366;2.738;2024-03-08T03:28:01;39.75;;;38.00;;
7879;SDS011;3985;49.366;2.738;2024-03-08T03:30:29;61.25;;;47.50;;
7879;SDS011;3985;49.366;2.738;2024-03-08T03:32:58;51.50;;;42.50;;
7879;SDS011;3985;49.366;2.738;2024-03-08T03:35:26;66.75;;;49.25;;
7879;SDS011;3985;49.366;2.738;2024-03-08T03:37:59;55.75;;;44.50;;
7879;SDS011;3985;49.366;2.738;2024-03-08T03:40:34;54.25;;;43.75;;
7879;SDS011;3985;49.366;2.738;2024-03-08T03:43:04;57.25;;;45.50;;
7879;SDS011;3985;49.366;2.738;2024-03-08T03:45:35;62.00;;;48.50;;
7879;SDS011;3985;49.366;2.738;2024-03-08T03:48:03;63.25;;;49.75;;
7879;SDS011;3985;49.366;2.738;2024-03-08T03:50:34;65.25;;;50.00;;
7879;SDS011;3985;49.366;2.738;2024-03-08T03:53:01;53.00;;;43.25;;
7879;SDS011;3985;49.366;2.738;2024-03-08T03:55:29;52.50;;;43.50;;
7879;SDS011;3985;49.366;2.738;2024-03-08T03:57:56;59.50;;;47.50;;
7879;SDS011;3985;49.366;2.738;2024-03-08T04:00:28;62.75;;;47.00;;
7879;SDS011;3985;49.366;2.738;2024-03-08T04:02:57;55.50;;;41.25;;
7879;SDS011;3985;49.366;2.738;2024-03-08T04:05:26;61.50;;;48.75;;
7879;SDS011;3985;49.366;2.738;2024-03-08T04:07:53;47.75;;;42.50;;
7879;SDS011;3985;49.366;2.738;2024-03-08T04:10:20;62.25;;;46.25;;
7879;SDS011;3985;49.366;2.738;2024-03-08T04:12:48;58.00;;;47.25;;
7879;SDS011;3985;49.366;2.738;2024-03-08T04:15:15;57.25;;;45.00;;
7879;SDS011;3985;49.366;2.738;2024-03-08T04:17:44;58.00;;;43.75;;
7879;SDS011;3985;49.366;2.738;2024-03-08T04:20:11;54.00;;;43.25;;
7879;SDS011;3985;49.366;2.738;2024-03-08T04:22:39;50.75;;;42.75;;
7879;SDS011;3985;49.366;2.738;2024-03-08T04:25:07;63.25;;;49.50;;
7879;SDS011;3985;49.366;2.738;2024-03-08T04:27:35;58.00;;;45.25;;
7879;SDS011;3985;49.366;2.738;2024-03-08T04:30:04;58.50;;;48.50;;
7879;SDS011;3985;49.366;2.738;2024-03-08T04:32:33;56.50;;;45.00;;
7879;SDS011;3985;49.366;2.738;2024-03-08T04:35:01;67.25;;;47.50;;
7879;SDS011;3985;49.366;2.738;2024-03-08T04:37:31;49.00;;;44.00;;
7879;SDS011;3985;49.366;2.738;2024-03-08T04:39:59;61.25;;;48.75;;
7879;SDS011;3985;49.366;2.738;2024-03-08T04:42:26;62.00;;;48.25;;
7879;SDS011;3985;49.366;2.738;2024-03-08T04:44:54;57.00;;;43.25;;
7879;SDS011;3985;49.366;2.738;2024-03-08T04:47:22;54.50;;;47.25;;
7879;SDS011;3985;49.366;2.738;2024-03-08T04:49:49;60.00;;;44.25;;
7879;SDS011;3985;49.366;2.738;2024-03-08T04:52:18;58.00;;;44.00;;
7879;SDS011;3985;49.366;2.738;2024-03-08T04:54:47;64.75;;;52.25;;
7879;SDS011;3985;49.366;2.738;2024-03-08T04:57:14;62.00;;;49.00;;
7879;SDS011;3985;49.366;2.738;2024-03-08T04:59:43;60.75;;;47.25;;
7879;SDS011;3985;49.366;2.738;2024-03-08T05:02:10;55.25;;;45.25;;
7879;SDS011;3985;49.366;2.738;2024-03-08T05:04:40;63.50;;;49.75;;
7879;SDS011;3985;49.366;2.738;2024-03-08T05:07:08;63.00;;;49.75;;
7879;SDS011;3985;49.366;2.738;2024-03-08T05:09:37;56.00;;;46.50;;
7879;SDS011;3985;49.366;2.738;2024-03-08T05:12:06;64.25;;;50.00;;
7879;SDS011;3985;49.366;2.738;2024-03-08T05:14:33;63.00;;;51.25;;
7879;SDS011;3985;49.366;2.738;2024-03-08T05:17:03;67.00;;;54.67;;
7879;SDS011;3985;49.366;2.738;2024-03-08T05:19:32;63.25;;;51.25;;
7879;SDS011;3985;49.366;2.738;2024-03-08T05:21:59;57.50;;;44.75;;
7879;SDS011;3985;49.366;2.738;2024-03-08T05:24:26;60.50;;;48.50;;
7879;SDS011;3985;49.366;2.738;2024-03-08T05:26:56;61.25;;;46.50;;
7879;SDS011;3985;49.366;2.738;2024-03-08T05:29:25;68.75;;;50.50;;
7879;SDS011;3985;49.366;2.738;2024-03-08T05:31:52;65.25;;;50.25;;
7879;SDS011;3985;49.366;2.738;2024-03-08T05:34:18;65.33;;;51.67;;
7879;SDS011;3985;49.366;2.738;2024-03-08T05:36:46;65.25;;;52.00;;
7879;SDS011;3985;49.366;2.738;2024-03-08T05:39:15;58.75;;;47.00;;
7879;SDS011;3985;49.366;2.738;2024-03-08T05:41:43;63.00;;;51.33;;
7879;SDS011;3985;49.366;2.738;2024-03-08T05:44:12;65.00;;;51.33;;
7879;SDS011;3985;49.366;2.738;2024-03-08T05:46:42;62.67;;;49.67;;
7879;SDS011;3985;49.366;2.738;2024-03-08T05:49:09;62.33;;;49.00;;
7879;SDS011;3985;49.366;2.738;2024-03-08T05:51:37;67.00;;;53.00;;
7879;SDS011;3985;49.366;2.738;2024-03-08T05:54:06;59.75;;;45.50;;
7879;SDS011;3985;49.366;2.738;2024-03-08T05:56:35;66.75;;;54.50;;
7879;SDS011;3985;49.366;2.738;2024-03-08T05:59:02;52.75;;;45.00;;
7879;SDS011;3985;49.366;2.738;2024-03-08T06:01:31;62.25;;;49.25;;
7879;SDS011;3985;49.366;2.738;2024-03-08T06:04:01;59.50;;;49.50;;
7879;SDS011;3985;49.366;2.738;2024-03-08T06:06:28;59.00;;;45.50;;
7879;SDS011;3985;49.366;2.738;2024-03-08T06:08:56;66.75;;;52.50;;
7879;SDS011;3985;49.366;2.738;2024-03-08T06:11:24;62.00;;;47.75;;
7879;SDS011;3985;49.366;2.738;2024-03-08T06:13:53;62.00;;;49.50;;
7879;SDS011;3985;49.366;2.738;2024-03-08T06:16:24;66.50;;;49.50;;
7879;SDS011;3985;49.366;2.738;2024-03-08T06:18:55;63.25;;;50.75;;
7879;SDS011;3985;49.366;2.738;2024-03-08T06:21:23;62.50;;;47.00;;
7879;SDS011;3985;49.366;2.738;2024-03-08T06:23:51;65.75;;;49.00;;
7879;SDS011;3985;49.366;2.738;2024-03-08T06:26:19;64.33;;;51.33;;
7879;SDS011;3985;49.366;2.738;2024-03-08T06:28:47;48.25;;;40.50;;
7879;SDS011;3985;49.366;2.738;2024-03-08T06:31:14;61.00;;;44.50;;
7879;SDS011;3985;49.366;2.738;2024-03-08T06:33:41;65.00;;;52.33;;
7879;SDS011;3985;49.366;2.738;2024-03-08T06:36:10;69.00;;;54.33;;
7879;SDS011;3985;49.366;2.738;2024-03-08T06:38:38;64.75;;;50.75;;
7879;SDS011;3985;49.366;2.738;2024-03-08T06:41:07;66.67;;;51.67;;
7879;SDS011;3985;49.366;2.738;2024-03-08T06:43:40;56.50;;;44.00;;
7879;SDS011;3985;49.366;2.738;2024-03-08T06:46:08;55.75;;;40.50;;
7879;SDS011;3985;49.366;2.738;2024-03-08T06:48:37;60.50;;;49.25;;
7879;SDS011;3985;49.366;2.738;2024-03-08T06:51:04;60.50;;;47.00;;
7879;SDS011;3985;49.366;2.738;2024-03-08T06:53:33;64.67;;;52.33;;
7879;SDS011;3985;49.366;2.738;2024-03-08T06:56:01;55.00;;;44.75;;
7879;SDS011;3985;49.366;2.738;2024-03-08T06:58:32;56.25;;;45.75;;
7879;SDS011;3985;49.366;2.738;2024-03-08T07:00:59;61.75;;;50.00;;
7879;SDS011;3985;49.366;2.738;2024-03-08T07:03:29;55.67;;;47.67;;
7879;SDS011;3985;49.366;2.738;2024-03-08T07:05:57;62.75;;;50.25;;
7879;SDS011;3985;49.366;2.738;2024-03-08T07:08:24;62.50;;;48.75;;
7879;SDS011;3985;49.366;2.738;2024-03-08T07:10:53;61.50;;;48.75;;
7879;SDS011;3985;49.366;2.738;2024-03-08T07:13:23;66.25;;;51.00;;
7879;SDS011;3985;49.366;2.738;2024-03-08T07:15:50;56.75;;;46.00;;
7879;SDS011;3985;49.366;2.738;2024-03-08T07:18:17;63.00;;;49.25;;
7879;SDS011;3985;49.366;2.738;2024-03-08T07:20:44;61.75;;;48.00;;
7879;SDS011;3985;49.366;2.738;2024-03-08T07:23:12;63.00;;;49.75;;
7879;SDS011;3985;49.366;2.738;2024-03-08T07:26:00;64.50;;;50.50;;
7879;SDS011;3985;49.366;2.738;2024-03-08T07:28:28;61.50;;;49.50;;
7879;SDS011;3985;49.366;2.738;2024-03-08T07:30:56;54.25;;;42.50;;
7879;SDS011;3985;49.366;2.738;2024-03-08T07:33:37;67.00;;;53.25;;
7879;SDS011;3985;49.366;2.738;2024-03-08T07:36:04;73.00;;;58.00;;
7879;SDS011;3985;49.366;2.738;2024-03-08T07:38:32;71.50;;;53.25;;
7879;SDS011;3985;49.366;2.738;2024-03-08T07:41:00;53.00;;;42.00;;
7879;SDS011;3985;49.366;2.738;2024-03-08T07:43:28;56.75;;;48.00;;
7879;SDS011;3985;49.366;2.738;2024-03-08T07:45:55;58.00;;;46.50;;
7879;SDS011;3985;49.366;2.738;2024-03-08T07:48:25;60.25;;;49.50;;
7879;SDS011;3985;49.366;2.738;2024-03-08T07:50:55;57.75;;;45.00;;
7879;SDS011;3985;49.366;2.738;2024-03-08T07:53:23;54.50;;;45.00;;
7879;SDS011;3985;49.366;2.738;2024-03-08T07:55:50;45.00;;;40.50;;
7879;SDS011;3985;49.366;2.738;2024-03-08T07:58:19;50.00;;;39.00;;
7879;SDS011;3985;49.366;2.738;2024-03-08T08:00:46;62.75;;;50.50;;
7879;SDS011;3985;49.366;2.738;2024-03-08T08:03:14;45.75;;;40.00;;
7879;SDS011;3985;49.366;2.738;2024-03-08T08:05:45;49.00;;;43.75;;
7879;SDS011;3985;49.366;2.738;2024-03-08T08:08:14;56.25;;;45.00;;
7879;SDS011;3985;49.366;2.738;2024-03-08T08:10:41;61.00;;;44.75;;
7879;SDS011;3985;49.366;2.738;2024-03-08T08:13:08;53.75;;;42.25;;
7879;SDS011;3985;49.366;2.738;2024-03-08T08:15:37;59.75;;;44.00;;
7879;SDS011;3985;49.366;2.738;2024-03-08T08:18:05;52.75;;;42.75;;
7879;SDS011;3985;49.366;2.738;2024-03-08T08:20:34;53.00;;;44.75;;
7879;SDS011;3985;49.366;2.738;2024-03-08T08:23:02;54.25;;;44.50;;
7879;SDS011;3985;49.366;2.738;2024-03-08T08:25:30;54.75;;;44.25;;
7879;SDS011;3985;49.366;2.738;2024-03-08T08:27:59;52.75;;;40.00;;
7879;SDS011;3985;49.366;2.738;2024-03-08T08:30:29;50.00;;;43.50;;
7879;SDS011;3985;49.366;2.738;2024-03-08T08:32:59;48.00;;;42.75;;
7879;SDS011;3985;49.366;2.738;2024-03-08T08:35:28;52.00;;;43.50;;
7879;SDS011;3985;49.366;2.738;2024-03-08T08:37:58;59.25;;;47.00;;
7879;SDS011;3985;49.366;2.738;2024-03-08T08:40:25;49.50;;;40.50;;
7879;SDS011;3985;49.366;2.738;2024-03-08T08:42:52;52.25;;;42.25;;
7879;SDS011;3985;49.366;2.738;2024-03-08T08:45:22;56.50;;;43.00;;
7879;SDS011;3985;49.366;2.738;2024-03-08T08:47:49;57.25;;;44.75;;
7879;SDS011;3985;49.366;2.738;2024-03-08T08:50:18;38.75;;;36.75;;
7879;SDS011;3985;49.366;2.738;2024-03-08T08:52:48;50.25;;;40.00;;
7879;SDS011;3985;49.366;2.738;2024-03-08T08:55:15;49.00;;;41.75;;
7879;SDS011;3985;49.366;2.738;2024-03-08T08:57:47;47.75;;;39.50;;
7879;SDS011;3985;49.366;2.738;2024-03-08T09:00:17;50.50;;;40.50;;
7879;SDS011;3985;49.366;2.738;2024-03-08T09:02:45;48.25;;;40.50;;
7879;SDS011;3985;49.366;2.738;2024-03-08T09:05:15;44.75;;;38.00;;
7879;SDS011;3985;49.366;2.738;2024-03-08T09:07:45;49.00;;;42.00;;
7879;SDS011;3985;49.366;2.738;2024-03-08T09:10:12;47.25;;;40.00;;
7879;SDS011;3985;49.366;2.738;2024-03-08T09:12:47;46.00;;;39.75;;
7879;SDS011;3985;49.366;2.738;2024-03-08T09:15:14;42.50;;;38.00;;
7879;SDS011;3985;49.366;2.738;2024-03-08T09:17:42;47.25;;;40.25;;
7879;SDS011;3985;49.366;2.738;2024-03-08T09:20:10;53.50;;;42.75;;
7879;SDS011;3985;49.366;2.738;2024-03-08T09:22:47;46.25;;;36.75;;
7879;SDS011;3985;49.366;2.738;2024-03-08T09:25:14;46.25;;;38.00;;
7879;SDS011;3985;49.366;2.738;2024-03-08T09:27:41;43.25;;;35.00;;
7879;SDS011;3985;49.366;2.738;2024-03-08T09:30:11;43.00;;;37.25;;
7879;SDS011;3985;49.366;2.738;2024-03-08T09:32:42;47.75;;;36.25;;
7879;SDS011;3985;49.366;2.738;2024-03-08T09:35:10;45.25;;;39.75;;
7879;SDS011;3985;49.366;2.738;2024-03-08T09:37:37;41.75;;;34.75;;
7879;SDS011;3985;49.366;2.738;2024-03-08T09:40:07;44.25;;;37.75;;
7879;SDS011;3985;49.366;2.738;2024-03-08T09:42:35;40.00;;;37.00;;
7879;SDS011;3985;49.366;2.738;2024-03-08T09:45:03;44.00;;;38.00;;
7879;SDS011;3985;49.366;2.738;2024-03-08T09:47:32;41.75;;;37.00;;
7879;SDS011;3985;49.366;2.738;2024-03-08T09:50:04;40.00;;;36.00;;
7879;SDS011;3985;49.366;2.738;2024-03-08T09:52:34;42.00;;;34.00;;
7879;SDS011;3985;49.366;2.738;2024-03-08T09:55:02;32.00;;;29.75;;
7879;SDS011;3985;49.366;2.738;2024-03-08T09:57:34;37.75;;;33.00;;
7879;SDS011;3985;49.366;2.738;2024-03-08T10:00:03;43.00;;;36.00;;
7879;SDS011;3985;49.366;2.738;2024-03-08T10:02:44;41.00;;;35.00;;
7879;SDS011;3985;49.366;2.738;2024-03-08T10:05:12;38.25;;;33.00;;
7879;SDS011;3985;49.366;2.738;2024-03-08T10:07:39;31.00;;;27.50;;
7879;SDS011;3985;49.366;2.738;2024-03-08T10:10:06;39.75;;;33.25;;
7879;SDS011;3985;49.366;2.738;2024-03-08T10:12:41;32.50;;;32.00;;
7879;SDS011;3985;49.366;2.738;2024-03-08T10:15:09;41.25;;;36.00;;
7879;SDS011;3985;49.366;2.738;2024-03-08T10:17:37;32.00;;;31.75;;
7879;SDS011;3985;49.366;2.738;2024-03-08T10:20:06;37.00;;;34.00;;
7879;SDS011;3985;49.366;2.738;2024-03-08T10:22:40;27.50;;;26.25;;
7879;SDS011;3985;49.366;2.738;2024-03-08T10:25:09;29.25;;;29.00;;
7879;SDS011;3985;49.366;2.738;2024-03-08T10:27:37;28.75;;;27.50;;
7879;SDS011;3985;49.366;2.738;2024-03-08T10:30:08;31.75;;;30.50;;
7879;SDS011;3985;49.366;2.738;2024-03-08T10:32:39;33.75;;;29.50;;
7879;SDS011;3985;49.366;2.738;2024-03-08T10:35:07;33.75;;;30.00;;
7879;SDS011;3985;49.366;2.738;2024-03-08T10:37:36;40.75;;;34.75;;
7879;SDS011;3985;49.366;2.738;2024-03-08T10:40:13;28.75;;;26.00;;
7879;SDS011;3985;49.366;2.738;2024-03-08T10:42:46;34.50;;;31.50;;
7879;SDS011;3985;49.366;2.738;2024-03-08T10:45:22;30.50;;;30.50;;
7879;SDS011;3985;49.366;2.738;2024-03-08T10:50:44;30.00;;;25.67;;
7879;SDS011;3985;49.366;2.738;2024-03-08T10:53:12;26.33;;;24.33;;
7879;SDS011;3985;49.366;2.738;2024-03-08T10:55:40;29.75;;;26.50;;
7879;SDS011;3985;49.366;2.738;2024-03-08T10:58:09;26.25;;;24.50;;
7879;SDS011;3985;49.366;2.738;2024-03-08T11:00:38;33.50;;;31.75;;
7879;SDS011;3985;49.366;2.738;2024-03-08T11:03:06;24.00;;;24.00;;
7879;SDS011;3985;49.366;2.738;2024-03-08T11:05:36;28.75;;;26.50;;
7879;SDS011;3985;49.366;2.738;2024-03-08T11:08:05;30.25;;;27.25;;
7879;SDS011;3985;49.366;2.738;2024-03-08T11:10:48;27.75;;;27.00;;
7879;SDS011;3985;49.366;2.738;2024-03-08T11:13:34;26.00;;;25.00;;
7879;SDS011;3985;49.366;2.738;2024-03-08T11:16:05;25.75;;;25.25;;
7879;SDS011;3985;49.366;2.738;2024-03-08T11:18:35;24.00;;;23.50;;
7879;SDS011;3985;49.366;2.738;2024-03-08T11:21:02;18.00;;;18.00;;
7879;SDS011;3985;49.366;2.738;2024-03-08T11:23:33;26.50;;;23.25;;
7879;SDS011;3985;49.366;2.738;2024-03-08T11:26:01;33.50;;;30.00;;
7879;SDS011;3985;49.366;2.738;2024-03-08T11:28:32;23.00;;;23.00;;
7879;SDS011;3985;49.366;2.738;2024-03-08T11:33:51;25.75;;;25.00;;
7879;SDS011;3985;49.366;2.738;2024-03-08T11:36:20;30.75;;;27.00;;
7879;SDS011;3985;49.366;2.738;2024-03-08T11:38:48;21.33;;;21.33;;
7879;SDS011;3985;49.366;2.738;2024-03-08T11:41:17;28.00;;;26.25;;
7879;SDS011;3985;49.366;2.738;2024-03-08T11:43:44;24.00;;;23.67;;
7879;SDS011;3985;49.366;2.738;2024-03-08T11:46:14;31.00;;;27.67;;
7879;SDS011;3985;49.366;2.738;2024-03-08T11:48:44;14.67;;;12.00;;
7879;SDS011;3985;49.366;2.738;2024-03-08T11:51:14;22.25;;;20.75;;
7879;SDS011;3985;49.366;2.738;2024-03-08T11:53:43;25.75;;;21.75;;
7879;SDS011;3985;49.366;2.738;2024-03-08T11:56:11;23.75;;;21.25;;
7879;SDS011;3985;49.366;2.738;2024-03-08T11:58:39;20.50;;;18.00;;
7879;SDS011;3985;49.366;2.738;2024-03-08T12:01:07;19.00;;;19.00;;
7879;SDS011;3985;49.366;2.738;2024-03-08T12:03:37;19.50;;;19.50;;
7879;SDS011;3985;49.366;2.738;2024-03-08T12:06:06;22.25;;;19.50;;
7879;SDS011;3985;49.366;2.738;2024-03-08T12:08:34;20.25;;;17.75;;
7879;SDS011;3985;49.366;2.738;2024-03-08T12:11:03;21.75;;;21.00;;
7879;SDS011;3985;49.366;2.738;2024-03-08T12:13:31;18.75;;;18.00;;
7879;SDS011;3985;49.366;2.738;2024-03-08T12:15:59;22.75;;;17.25;;
7879;SDS011;3985;49.366;2.738;2024-03-08T12:18:29;15.25;;;15.00;;
7879;SDS011;3985;49.366;2.738;2024-03-08T12:21:07;19.25;;;16.00;;
7879;SDS011;3985;49.366;2.738;2024-03-08T12:23:37;21.00;;;18.00;;
7879;SDS011;3985;49.366;2.738;2024-03-08T12:26:11;16.25;;;12.75;;
7879;SDS011;3985;49.366;2.738;2024-03-08T12:28:39;16.50;;;15.00;;
7879;SDS011;3985;49.366;2.738;2024-03-08T12:31:09;20.00;;;18.75;;
7879;SDS011;3985;49.366;2.738;2024-03-08T12:33:46;20.75;;;18.25;;
7879;SDS011;3985;49.366;2.738;2024-03-08T12:36:16;19.75;;;18.00;;
7879;SDS011;3985;49.366;2.738;2024-03-08T12:38:45;21.50;;;17.75;;
7879;SDS011;3985;49.366;2.738;2024-03-08T12:41:13;16.50;;;16.50;;
7879;SDS011;3985;49.366;2.738;2024-03-08T12:43:40;24.25;;;18.75;;
7879;SDS011;3985;49.366;2.738;2024-03-08T12:46:07;20.75;;;20.25;;
7879;SDS011;3985;49.366;2.738;2024-03-08T12:48:35;15.25;;;15.25;;
7879;SDS011;3985;49.366;2.738;2024-03-08T12:51:05;17.00;;;16.50;;
7879;SDS011;3985;49.366;2.738;2024-03-08T12:53:35;16.75;;;15.75;;
7879;SDS011;3985;49.366;2.738;2024-03-08T12:56:05;16.00;;;15.00;;
7879;SDS011;3985;49.366;2.738;2024-03-08T12:58:37;20.25;;;20.25;;
7879;SDS011;3985;49.366;2.738;2024-03-08T13:01:05;19.25;;;17.75;;
7879;SDS011;3985;49.366;2.738;2024-03-08T13:03:35;19.50;;;19.00;;
7879;SDS011;3985;49.366;2.738;2024-03-08T13:06:05;18.50;;;15.75;;
7879;SDS011;3985;49.366;2.738;2024-03-08T13:08:35;21.00;;;20.75;;
7879;SDS011;3985;49.366;2.738;2024-03-08T13:11:07;18.75;;;18.75;;
7879;SDS011;3985;49.366;2.738;2024-03-08T13:13:36;18.25;;;17.50;;
7879;SDS011;3985;49.366;2.738;2024-03-08T13:16:05;19.50;;;18.50;;
7879;SDS011;3985;49.366;2.738;2024-03-08T13:18:35;14.50;;;14.50;;
7879;SDS011;3985;49.366;2.738;2024-03-08T13:21:07;17.25;;;17.25;;
7879;SDS011;3985;49.366;2.738;2024-03-08T13:23:37;19.75;;;19.75;;
7879;SDS011;3985;49.366;2.738;2024-03-08T13:26:05;18.00;;;16.75;;
7879;SDS011;3985;49.366;2.738;2024-03-08T13:28:38;20.50;;;18.75;;
7879;SDS011;3985;49.366;2.738;2024-03-08T13:31:06;18.67;;;15.33;;
7879;SDS011;3985;49.366;2.738;2024-03-08T13:33:35;19.00;;;19.00;;
7879;SDS011;3985;49.366;2.738;2024-03-08T13:36:04;14.00;;;11.50;;
7879;SDS011;3985;49.366;2.738;2024-03-08T13:38:41;18.50;;;17.25;;
7879;SDS011;3985;49.366;2.738;2024-03-08T13:41:13;17.25;;;17.00;;
7879;SDS011;3985;49.366;2.738;2024-03-08T13:43:42;17.00;;;17.00;;
7879;SDS011;3985;49.366;2.738;2024-03-08T13:46:09;17.75;;;17.25;;
7879;SDS011;3985;49.366;2.738;2024-03-08T13:48:36;18.75;;;17.25;;
7879;SDS011;3985;49.366;2.738;2024-03-08T13:51:03;23.00;;;21.00;;
7879;SDS011;3985;49.366;2.738;2024-03-08T13:53:34;22.50;;;20.25;;
7879;SDS011;3985;49.366;2.738;2024-03-08T13:56:04;23.75;;;21.25;;
7879;SDS011;3985;49.366;2.738;2024-03-08T13:58:33;19.25;;;19.00;;
7879;SDS011;3985;49.366;2.738;2024-03-08T14:01:01;16.00;;;16.00;;
7879;SDS011;3985;49.366;2.738;2024-03-08T14:03:30;21.25;;;19.75;;
7879;SDS011;3985;49.366;2.738;2024-03-08T14:05:58;19.25;;;19.00;;
7879;SDS011;3985;49.366;2.738;2024-03-08T14:08:31;19.75;;;18.00;;
7879;SDS011;3985;49.366;2.738;2024-03-08T14:11:03;19.25;;;19.25;;
7879;SDS011;3985;49.366;2.738;2024-03-08T14:13:40;18.50;;;17.00;;
7879;SDS011;3985;49.366;2.738;2024-03-08T14:16:10;17.50;;;17.50;;
7879;SDS011;3985;49.366;2.738;2024-03-08T14:18:38;16.50;;;16.50;;
7879;SDS011;3985;49.366;2.738;2024-03-08T14:21:05;19.00;;;17.50;;
7879;SDS011;3985;49.366;2.738;2024-03-08T14:23:35;19.25;;;17.25;;
7879;SDS011;3985;49.366;2.738;2024-03-08T14:26:03;14.50;;;14.50;;
7879;SDS011;3985;49.366;2.738;2024-03-08T14:28:32;15.25;;;15.25;;
7879;SDS011;3985;49.366;2.738;2024-03-08T14:31:00;17.00;;;15.50;;
7879;SDS011;3985;49.366;2.738;2024-03-08T14:33:28;23.25;;;22.00;;
7879;SDS011;3985;49.366;2.738;2024-03-08T14:35:56;14.00;;;14.00;;
7879;SDS011;3985;49.366;2.738;2024-03-08T14:38:23;20.00;;;19.00;;
7879;SDS011;3985;49.366;2.738;2024-03-08T14:40:52;15.50;;;15.50;;
7879;SDS011;3985;49.366;2.738;2024-03-08T14:43:21;15.00;;;15.00;;
7879;SDS011;3985;49.366;2.738;2024-03-08T14:45:49;17.75;;;16.50;;
7879;SDS011;3985;49.366;2.738;2024-03-08T14:48:17;20.00;;;20.00;;
7879;SDS011;3985;49.366;2.738;2024-03-08T14:50:45;18.00;;;13.75;;
7879;SDS011;3985;49.366;2.738;2024-03-08T14:53:13;18.00;;;15.75;;
7879;SDS011;3985;49.366;2.738;2024-03-08T14:55:40;17.00;;;17.00;;
7879;SDS011;3985;49.366;2.738;2024-03-08T14:58:09;20.75;;;15.50;;
7879;SDS011;3985;49.366;2.738;2024-03-08T15:00:42;19.50;;;18.00;;
7879;SDS011;3985;49.366;2.738;2024-03-08T15:03:09;18.50;;;17.50;;
7879;SDS011;3985;49.366;2.738;2024-03-08T15:05:38;18.50;;;17.50;;